createdAt,value
2022-10-19T00:01:10.724Z,100.00
2022-10-19T00:06:16.587Z,100.00
2022-10-19T00:11:21.911Z,100.00
2022-10-19T00:16:26.536Z,100.00
2022-10-19T00:21:30.462Z,100.00
2022-10-19T00:26:35.507Z,100.00
2022-10-19T00:31:39.228Z,100.00
2022-10-19T00:36:43.017Z,100.00
2022-10-19T00:41:48.541Z,100.00
2022-10-19T00:46:53.266Z,100.00
2022-10-19T00:51:58.141Z,100.00
2022-10-19T00:57:04.597Z,100.00
2022-10-19T01:02:08.417Z,100.00
2022-10-19T01:07:12.395Z,100.00
2022-10-19T01:12:45.589Z,100.00
2022-10-19T01:17:53.689Z,100.00
2022-10-19T01:23:06.732Z,100.00
2022-10-19T01:28:25.312Z,100.00
2022-10-19T01:33:36.656Z,100.00
2022-10-19T01:38:46.126Z,100.00
2022-10-19T01:43:52.936Z,100.00
2022-10-19T01:49:01.064Z,100.00
2022-10-19T01:54:07.776Z,100.00
2022-10-19T01:59:12.888Z,100.00
2022-10-19T02:04:20.295Z,100.00
2022-10-19T02:09:23.967Z,100.00
2022-10-19T02:14:30.552Z,100.00
2022-10-19T02:19:35.575Z,100.00
2022-10-19T02:24:40.110Z,100.00
2022-10-19T02:29:47.714Z,100.00
2022-10-19T02:35:01.881Z,100.00
2022-10-19T02:40:06.537Z,100.00
2022-10-19T02:45:13.569Z,100.00
2022-10-19T02:50:20.517Z,100.00
2022-10-19T02:55:24.079Z,100.00
2022-10-19T03:00:28.769Z,100.00
2022-10-19T03:05:33.759Z,100.00
2022-10-19T03:10:37.380Z,100.00
2022-10-19T03:15:40.953Z,100.00
2022-10-19T03:20:46.063Z,100.00
2022-10-19T03:25:49.719Z,100.00
2022-10-19T03:30:53.570Z,100.00
2022-10-19T03:36:20.632Z,100.00
2022-10-19T03:41:25.035Z,100.00
2022-10-19T03:46:28.629Z,100.00
2022-10-19T03:51:33.974Z,100.00
2022-10-19T03:56:37.528Z,100.00
2022-10-19T04:01:41.867Z,100.00
2022-10-19T04:06:47.663Z,100.00
2022-10-19T04:11:51.492Z,100.00
2022-10-19T04:16:55.069Z,100.00
2022-10-19T04:22:00.652Z,100.00
2022-10-19T04:27:04.333Z,100.00
2022-10-19T04:32:08.096Z,100.00
2022-10-19T04:37:13.106Z,100.00
2022-10-19T04:42:16.730Z,100.00
2022-10-19T04:47:20.329Z,100.00
2022-10-19T04:52:25.368Z,100.00
2022-10-19T04:57:29.006Z,100.00
2022-10-19T05:02:32.623Z,100.00
2022-10-19T05:07:39.410Z,100.00
2022-10-19T05:12:43.034Z,100.00
2022-10-19T05:17:46.692Z,100.00
2022-10-19T05:22:52.305Z,100.00
2022-10-19T05:27:56.059Z,100.00
2022-10-19T05:32:59.664Z,100.00
2022-10-19T05:38:04.799Z,100.00
2022-10-19T05:43:08.369Z,100.00
2022-10-19T05:48:11.965Z,100.00
2022-10-19T05:53:17.247Z,100.00
2022-10-19T05:58:21.893Z,100.00
2022-10-19T06:03:26.291Z,100.00
2022-10-19T06:08:31.353Z,100.00
2022-10-19T06:13:35.305Z,100.00
2022-10-19T06:18:39.170Z,100.00
2022-10-19T06:23:44.265Z,100.00
2022-10-19T06:28:47.933Z,100.00
2022-10-19T06:33:51.595Z,100.00
2022-10-19T06:38:59.969Z,100.00
2022-10-19T06:44:03.903Z,100.00
2022-10-19T06:49:07.472Z,100.00
2022-10-19T06:54:12.479Z,100.00
2022-10-19T06:59:17.692Z,99.51
2022-10-19T07:04:21.273Z,95.20
2022-10-19T07:09:26.362Z,91.04
2022-10-19T07:14:31.541Z,81.94
2022-10-19T07:19:35.945Z,81.83
2022-10-19T07:24:41.038Z,83.77
2022-10-19T07:29:45.108Z,79.55
2022-10-19T07:34:48.866Z,75.38
2022-10-19T07:39:53.811Z,72.48
2022-10-19T07:44:57.705Z,71.62
2022-10-19T07:50:01.429Z,63.33
2022-10-19T07:55:07.776Z,63.62
2022-10-19T08:00:12.370Z,62.83
2022-10-19T08:05:16.411Z,56.97
2022-10-19T08:10:21.621Z,56.74
2022-10-19T08:15:27.565Z,55.23
2022-10-19T08:20:31.134Z,55.51
2022-10-19T08:25:37.253Z,52.00
2022-10-19T08:30:40.805Z,46.44
2022-10-19T08:35:44.345Z,48.65
2022-10-19T08:40:49.349Z,47.96
2022-10-19T08:45:59.076Z,43.01
2022-10-19T08:51:02.870Z,42.14
2022-10-19T08:56:26.983Z,43.15
2022-10-19T09:01:39.686Z,42.06
2022-10-19T09:06:49.860Z,41.96
2022-10-19T09:11:57.209Z,43.17
2022-10-19T09:17:03.401Z,42.29
2022-10-19T09:22:09.070Z,41.24
2022-10-19T09:27:17.910Z,38.76
2022-10-19T09:32:24.413Z,36.69
2022-10-19T09:42:34.805Z,36.67
2022-10-19T09:47:39.684Z,36.29
2022-10-19T09:52:44.201Z,34.69
2022-10-19T09:57:50.099Z,33.86
2022-10-19T10:02:54.490Z,34.34
2022-10-19T10:07:58.115Z,33.35
2022-10-19T10:13:03.655Z,33.34
2022-10-19T10:18:07.305Z,35.82
2022-10-19T10:23:29.596Z,35.11
2022-10-19T10:28:34.957Z,34.27
2022-10-19T10:33:44.690Z,31.97
2022-10-19T10:38:59.311Z,29.17
2022-10-19T10:44:12.961Z,31.20
2022-10-19T10:49:21.859Z,32.37
2022-10-19T10:54:26.637Z,31.51
2022-10-19T10:59:36.331Z,27.55
2022-10-19T11:04:41.324Z,22.43
2022-10-19T11:09:50.732Z,23.62
2022-10-19T11:14:58.705Z,22.28
2022-10-19T11:20:02.262Z,21.82
2022-10-19T11:25:20.695Z,22.46
2022-10-19T11:30:26.865Z,23.00
2022-10-19T11:35:35.973Z,20.47
2022-10-19T11:40:54.149Z,22.58
2022-10-19T11:46:10.703Z,22.63
2022-10-19T11:51:21.673Z,23.90
2022-10-19T11:56:39.226Z,23.25
2022-10-19T12:01:58.608Z,23.53
2022-10-19T12:07:07.623Z,25.00
2022-10-19T12:12:23.813Z,23.42
2022-10-19T12:17:31.383Z,23.08
2022-10-19T12:22:37.445Z,22.74
2022-10-19T12:27:53.437Z,25.89
2022-10-19T12:33:01.644Z,26.01
2022-10-19T12:38:10.079Z,26.06
2022-10-19T12:43:18.034Z,26.04
2022-10-19T12:48:25.771Z,26.30
2022-10-19T12:53:31.009Z,24.88
2022-10-19T12:58:37.435Z,26.86
2022-10-19T13:03:43.396Z,25.30
2022-10-19T13:08:48.810Z,25.84
2022-10-19T13:14:00.368Z,26.01
2022-10-19T13:19:18.551Z,26.88
2022-10-19T13:24:28.473Z,28.15
2022-10-19T13:29:40.634Z,27.24
2022-10-19T13:34:46.596Z,26.95
2022-10-19T13:39:50.612Z,26.05
2022-10-19T13:44:54.565Z,25.59
2022-10-19T13:50:12.940Z,28.68
2022-10-19T13:55:31.368Z,27.80
2022-10-19T14:00:39.367Z,29.15
2022-10-19T14:05:57.095Z,29.93
2022-10-19T14:11:03.049Z,29.78
2022-10-19T14:16:10.400Z,30.45
2022-10-19T14:21:13.967Z,30.82
2022-10-19T14:26:20.335Z,30.75
2022-10-19T14:31:26.747Z,31.29
2022-10-19T14:36:34.404Z,31.09
2022-10-19T14:41:38.195Z,33.17
2022-10-19T14:46:48.570Z,31.44
2022-10-19T14:51:53.629Z,30.31
2022-10-19T14:56:59.131Z,33.22
2022-10-19T15:02:06.582Z,34.06
2022-10-19T15:07:17.058Z,35.65
2022-10-19T15:12:22.730Z,33.62
2022-10-19T15:17:29.470Z,34.67
2022-10-19T15:22:41.426Z,34.14
2022-10-19T15:27:47.530Z,33.97
2022-10-19T15:32:56.054Z,35.74
2022-10-19T15:38:02.522Z,35.20
2022-10-19T15:43:22.834Z,36.30
2022-10-19T15:48:30.894Z,36.73
2022-10-19T15:53:34.577Z,37.85
2022-10-19T15:58:38.315Z,37.57
2022-10-19T16:03:48.022Z,39.56
2022-10-19T16:08:54.206Z,41.49
2022-10-19T16:13:57.986Z,39.87
2022-10-19T16:19:04.086Z,39.83
2022-10-19T16:24:08.128Z,39.44
2022-10-19T16:29:11.720Z,37.32
2022-10-19T16:34:16.749Z,36.66
2022-10-19T16:39:20.528Z,35.52
2022-10-19T16:44:24.129Z,37.13
2022-10-19T16:49:30.587Z,38.71
2022-10-19T16:54:34.938Z,36.18
2022-10-19T16:59:38.518Z,39.49
2022-10-19T17:04:46.771Z,42.25
2022-10-19T17:09:54.532Z,42.00
2022-10-19T17:15:17.641Z,40.61
2022-10-19T17:20:28.286Z,43.08
2022-10-19T17:25:31.833Z,45.69
2022-10-19T17:30:35.528Z,41.73
2022-10-19T17:35:40.792Z,44.46
2022-10-19T17:40:44.409Z,45.81
2022-10-19T17:45:48.097Z,47.50
2022-10-19T17:50:58.953Z,49.49
2022-10-19T17:56:06.506Z,48.82
2022-10-19T18:01:11.382Z,49.28
2022-10-19T18:06:17.788Z,50.13
2022-10-19T18:11:24.461Z,54.81
2022-10-19T18:16:59.772Z,51.91
2022-10-19T18:22:10.442Z,56.45
2022-10-19T18:27:14.427Z,51.13
2022-10-19T18:32:24.171Z,48.39
2022-10-19T18:43:35.115Z,54.47
2022-10-19T18:54:46.581Z,45.33
2022-10-19T18:59:50.675Z,49.60
2022-10-19T19:04:57.248Z,44.51
2022-10-19T19:10:02.212Z,45.96
2022-10-19T19:15:08.462Z,47.28
2022-10-19T19:20:12.208Z,49.68
2022-10-19T19:25:21.043Z,49.90
2022-10-19T19:30:34.663Z,49.96
2022-10-19T19:36:06.919Z,54.67
2022-10-19T19:41:14.367Z,54.67
2022-10-19T19:46:19.606Z,54.31
2022-10-19T19:51:36.990Z,55.28
2022-10-19T19:56:50.402Z,56.60
2022-10-19T20:01:59.237Z,59.63
2022-10-19T20:07:04.957Z,59.92
2022-10-19T20:12:12.236Z,65.90
2022-10-19T20:17:24.997Z,62.78
2022-10-19T20:22:33.834Z,66.53
2022-10-19T20:27:56.683Z,68.38
2022-10-19T20:33:03.876Z,73.42
2022-10-19T20:38:07.539Z,82.34
2022-10-19T20:43:20.130Z,83.85
2022-10-19T20:49:13.393Z,72.42
2022-10-19T20:54:22.089Z,78.84
2022-10-19T20:59:32.777Z,79.69
2022-10-19T21:04:37.691Z,79.06
2022-10-19T21:09:41.401Z,83.18
2022-10-19T21:14:46.379Z,94.99
2022-10-19T21:19:50.666Z,91.89
2022-10-19T21:24:54.433Z,93.71
2022-10-19T21:29:59.357Z,100.00
2022-10-19T21:35:03.069Z,100.00
2022-10-19T21:40:07.206Z,100.00
2022-10-19T21:45:30.275Z,100.00
2022-10-19T21:50:34.231Z,100.00
2022-10-19T21:55:38.136Z,100.00
2022-10-19T22:00:44.531Z,100.00
2022-10-19T22:05:51.322Z,100.00
2022-10-19T22:10:56.158Z,100.00
2022-10-19T22:16:06.040Z,100.00
2022-10-19T22:21:12.395Z,100.00
2022-10-19T22:26:16.038Z,100.00
2022-10-19T22:31:20.964Z,100.00
2022-10-19T22:36:28.490Z,100.00
2022-10-19T22:41:32.770Z,100.00
2022-10-19T22:46:37.834Z,100.00
2022-10-19T22:51:41.537Z,100.00
2022-10-19T22:56:45.064Z,100.00
2022-10-19T23:01:50.157Z,100.00
2022-10-19T23:06:53.778Z,100.00
2022-10-19T23:11:59.299Z,100.00
2022-10-19T23:17:04.362Z,100.00
2022-10-19T23:22:08.363Z,100.00
2022-10-19T23:27:15.594Z,100.00
2022-10-19T23:32:20.680Z,100.00
2022-10-19T23:37:24.243Z,100.00
2022-10-19T23:42:27.799Z,100.00
2022-10-19T23:47:32.833Z,100.00
2022-10-19T23:52:36.566Z,100.00
2022-10-19T23:57:40.165Z,100.00
